This is the latest recevied weather packets stored in our database for station/object YN1JLX-13. If no packets are shown the sender has not sent any weather packets the latest 10 day(s).
| Time | Temp. | Humidity | Pressure | Rain* | Wind** | Luminosity | Snow |
|---|---|---|---|---|---|---|---|
| 1778118970 | 23.89° C | 46% | 1011 hPa | 0 mm | - | - | - |
| 1778118370 | 22.78° C | 46% | 1011 hPa | 0 mm | - | - | - |
| 1778117770 | 23.33° C | 46% | 1011 hPa | 0 mm | - | - | - |
| 1778117169 | 23.89° C | 46% | 1010 hPa | 0 mm | - | - | - |
| 1778116569 | 24.44° C | 46% | 1010 hPa | 0 mm | - | - | - |
| 1778115969 | 28.89° C | 51% | 1010 hPa | 0 mm | - | - | - |
| 1778115368 | 28.89° C | 51% | 1010 hPa | 0 mm | - | - | - |
| 1778114768 | 28.89° C | 43% | 1010 hPa | 0 mm | - | - | - |
| 1778114168 | 28.89° C | 43% | 1010 hPa | 0 mm | - | - | - |
| 1778113567 | 23.33° C | 38% | 1009 hPa | 0 mm | - | - | - |
| 1778112967 | 23.89° C | 38% | 1009 hPa | 0 mm | - | - | - |
| 1778112367 | 23.89° C | 36% | 1009 hPa | 0 mm | - | - | - |
| 1778111767 | 25° C | 36% | 1009 hPa | 0 mm | - | - | - |
| 1778111166 | 26.11° C | 36% | 1009 hPa | 0 mm | - | - | - |
| 1778110566 | 26.11° C | 36% | 1009 hPa | 0 mm | - | - | - |
| 1778109965 | 26.67° C | 36% | 1008 hPa | 0 mm | - | - | - |
| 1778109366 | 26.67° C | 36% | 1008 hPa | 0 mm | - | - | - |
| 1778108765 | 25.56° C | 35% | 1008 hPa | 0 mm | - | - | - |
| 1778108165 | 25.56° C | 35% | 1008 hPa | 0 mm | - | - | - |
| 1778107564 | 26.11° C | 35% | 1008 hPa | 0 mm | - | - | - |
| 1778106964 | 26.67° C | 35% | 1008 hPa | 0 mm | - | - | - |
| 1778106364 | 26.67° C | 34% | 1008 hPa | 0 mm | - | - | - |
| 1778105763 | 27.78° C | 34% | 1008 hPa | 0 mm | - | - | - |
| 1778105163 | 28.89° C | 34% | 1008 hPa | 0 mm | - | - | - |
| 1778104562 | 28.89° C | 34% | 1008 hPa | 0 mm | - | - | - |
* Rain latest hour (hover to see other rain measurements)
** Current wind speed in m/s (hover to see current wind gust speed)